createdAt,value
2023-02-08T00:03:39.933Z,10.30
2023-02-08T00:08:46.305Z,11.60
2023-02-08T00:14:11.596Z,17.90
2023-02-08T00:19:15.173Z,11.10
2023-02-08T00:24:18.628Z,17.40
2023-02-08T00:29:22.151Z,21.50
2023-02-08T00:34:31.810Z,16.50
2023-02-08T00:39:42.537Z,16.70
2023-02-08T00:44:48.455Z,13.70
2023-02-08T00:49:55.952Z,15.90
2023-02-08T00:55:24.421Z,19.90
2023-02-08T01:00:46.677Z,20.40
2023-02-08T01:06:11.285Z,18.80
2023-02-08T01:11:44.944Z,21.20
2023-02-08T01:16:48.981Z,24.10
2023-02-08T01:21:58.919Z,19.60
2023-02-08T01:27:04.898Z,25.30
2023-02-08T01:32:10.375Z,19.50
2023-02-08T01:37:19.443Z,21.30
2023-02-08T01:42:44.353Z,24.50
2023-02-08T01:47:58.275Z,20.70
2023-02-08T01:53:12.508Z,24.40
2023-02-08T01:58:28.245Z,23.20
2023-02-08T02:03:34.220Z,20.20
2023-02-08T02:08:47.628Z,23.40
2023-02-08T02:14:01.473Z,26.90
2023-02-08T02:19:33.453Z,22.00
2023-02-08T02:25:03.215Z,20.10
2023-02-08T02:31:13.447Z,20.00
2023-02-08T02:36:37.560Z,20.80
2023-02-08T02:42:58.928Z,23.80
2023-02-08T02:48:23.120Z,21.80
2023-02-08T02:53:59.375Z,23.50
2023-02-08T02:59:23.798Z,24.90
2023-02-08T03:04:41.792Z,21.30
2023-02-08T03:10:19.590Z,22.90
2023-02-08T03:15:47.463Z,28.20
2023-02-08T03:21:08.407Z,23.90
2023-02-08T03:26:26.750Z,23.40
2023-02-08T03:32:17.819Z,29.60
2023-02-08T03:37:30.406Z,44.60
2023-02-08T03:42:53.593Z,24.90
2023-02-08T03:48:09.905Z,26.60
2023-02-08T03:53:40.587Z,25.40
2023-02-08T03:59:14.384Z,25.70
2023-02-08T04:04:45.120Z,27.20
2023-02-08T04:09:58.889Z,27.30
2023-02-08T04:15:08.002Z,31.90
2023-02-08T04:20:37.063Z,28.90
2023-02-08T04:25:43.543Z,27.70
2023-02-08T04:31:23.073Z,29.30
2023-02-08T04:36:44.147Z,29.20
2023-02-08T04:41:47.794Z,28.00
2023-02-08T04:46:57.326Z,30.90
2023-02-08T04:52:34.128Z,37.20
2023-02-08T04:58:05.676Z,37.70
2023-02-08T05:03:19.828Z,38.40
2023-02-08T05:08:22.836Z,28.20
2023-02-08T05:13:37.415Z,24.70
2023-02-08T05:19:12.151Z,23.20
2023-02-08T05:24:38.633Z,21.10
2023-02-08T05:30:13.627Z,23.70
2023-02-08T05:35:27.676Z,24.40
2023-02-08T05:40:43.176Z,19.30
2023-02-08T05:46:08.396Z,24.80
2023-02-08T05:51:17.239Z,23.60
2023-02-08T05:56:25.727Z,24.40
2023-02-08T06:01:42.828Z,30.90
2023-02-08T06:06:50.913Z,26.40
2023-02-08T06:11:57.334Z,29.10
2023-02-08T06:17:03.128Z,31.70
2023-02-08T06:22:06.619Z,25.80
2023-02-08T06:27:22.260Z,35.50
2023-02-08T06:32:28.492Z,34.70
2023-02-08T06:37:37.782Z,24.70
2023-02-08T06:42:56.413Z,25.80
2023-02-08T06:48:05.125Z,18.80
2023-02-08T06:53:08.140Z,25.20
2023-02-08T06:58:17.539Z,21.00
2023-02-08T07:03:29.709Z,32.20
2023-02-08T07:08:37.459Z,26.30
2023-02-08T07:13:48.551Z,35.10
2023-02-08T07:18:51.559Z,47.00
2023-02-08T07:23:57.396Z,106.50
2023-02-08T07:29:22.364Z,175.70
2023-02-08T07:34:26.389Z,116.00
2023-02-08T07:39:31.517Z,194.80
2023-02-08T07:44:40.751Z,64.60
2023-02-08T07:49:43.865Z,41.20
2023-02-08T07:55:07.850Z,108.80
2023-02-08T08:00:22.312Z,54.40
2023-02-08T08:05:33.946Z,72.60
2023-02-08T08:10:57.473Z,55.80
2023-02-08T08:16:00.908Z,62.80
2023-02-08T08:21:08.657Z,92.00
2023-02-08T08:26:17.516Z,54.40
2023-02-08T08:31:31.394Z,77.30
2023-02-08T08:36:42.485Z,50.90
2023-02-08T08:42:17.670Z,41.60
2023-02-08T08:47:31.966Z,46.70
2023-02-08T08:52:44.046Z,47.00
2023-02-08T08:58:02.113Z,51.00
2023-02-08T09:03:08.862Z,42.70
2023-02-08T09:08:39.596Z,31.60
2023-02-08T09:14:04.593Z,30.00
2023-02-08T09:19:21.562Z,28.30
2023-02-08T09:24:40.134Z,33.50
2023-02-08T09:29:57.557Z,31.10
2023-02-08T09:35:28.289Z,31.70
2023-02-08T09:41:26.282Z,33.50
2023-02-08T09:46:39.448Z,32.50
2023-02-08T09:52:16.051Z,39.10
2023-02-08T09:57:30.963Z,34.60
2023-02-08T10:02:38.135Z,38.40
2023-02-08T10:07:44.627Z,33.00
2023-02-08T10:13:56.030Z,34.00
2023-02-08T10:19:59.663Z,35.60
2023-02-08T10:25:50.346Z,35.00
2023-02-08T10:31:30.637Z,34.00
2023-02-08T10:36:42.173Z,37.70
2023-02-08T10:42:14.192Z,46.40
2023-02-08T10:47:31.155Z,34.10
2023-02-08T10:52:42.185Z,40.20
2023-02-08T10:58:08.624Z,66.70
2023-02-08T11:03:38.475Z,40.90
2023-02-08T11:09:07.541Z,39.80
2023-02-08T11:14:58.506Z,40.40
2023-02-08T11:20:31.861Z,37.70
2023-02-08T11:25:40.971Z,32.80
2023-02-08T11:31:23.253Z,36.20
2023-02-08T11:37:39.772Z,36.40
2023-02-08T11:42:47.344Z,32.40
2023-02-08T11:48:37.068Z,34.50
2023-02-08T11:54:19.353Z,36.00
2023-02-08T11:59:29.286Z,37.40
2023-02-08T12:04:40.602Z,37.50
2023-02-08T12:10:38.159Z,44.20
2023-02-08T12:16:14.959Z,38.30
2023-02-08T12:21:44.597Z,38.70
2023-02-08T12:27:12.060Z,32.30
2023-02-08T12:32:57.162Z,39.10
2023-02-08T12:38:52.943Z,30.90
2023-02-08T12:44:12.271Z,41.10
2023-02-08T12:49:39.507Z,33.50
2023-02-08T12:55:33.867Z,34.30
2023-02-08T13:01:03.175Z,32.60
2023-02-08T13:06:38.443Z,33.40
2023-02-08T13:11:55.049Z,30.60
2023-02-08T13:17:17.564Z,42.80
2023-02-08T13:22:25.486Z,34.40
2023-02-08T13:27:28.867Z,38.40
2023-02-08T13:33:04.851Z,30.90
2023-02-08T13:38:38.031Z,30.30
2023-02-08T13:44:07.682Z,27.50
2023-02-08T13:49:54.046Z,25.20
2023-02-08T13:55:36.173Z,25.30
2023-02-08T14:01:02.333Z,27.20
2023-02-08T14:06:23.648Z,18.30
2023-02-08T14:11:57.482Z,22.50
2023-02-08T14:17:20.770Z,26.00
2023-02-08T14:22:39.280Z,21.70
2023-02-08T14:28:01.309Z,24.50
2023-02-08T14:33:16.784Z,78.60
2023-02-08T14:38:31.545Z,47.10
2023-02-08T14:43:42.645Z,65.50
2023-02-08T14:49:00.764Z,42.70
2023-02-08T14:55:15.229Z,70.00
2023-02-08T15:00:36.155Z,54.40
2023-02-08T15:06:06.980Z,60.10
2023-02-08T15:11:45.552Z,31.60
2023-02-08T15:16:55.972Z,54.40
2023-02-08T15:22:28.437Z,109.00
2023-02-08T15:27:34.965Z,80.80
2023-02-08T15:32:46.201Z,60.40
2023-02-08T15:38:18.252Z,82.30
2023-02-08T15:43:27.047Z,100.90
2023-02-08T15:48:41.982Z,94.20
2023-02-08T15:53:49.098Z,76.40
2023-02-08T15:58:59.312Z,145.10
2023-02-08T16:04:07.664Z,128.60
2023-02-08T16:09:25.437Z,139.50
2023-02-08T16:14:50.666Z,116.90
2023-02-08T16:19:55.307Z,64.40
2023-02-08T16:25:43.464Z,71.10
2023-02-08T16:30:53.019Z,69.60
2023-02-08T16:36:03.232Z,84.00
2023-02-08T16:41:14.665Z,92.10
2023-02-08T16:46:22.454Z,85.70
2023-02-08T16:51:45.652Z,79.00
2023-02-08T16:57:10.074Z,60.20
2023-02-08T17:02:13.665Z,57.50
2023-02-08T17:07:21.569Z,61.30
2023-02-08T17:12:44.943Z,61.70
2023-02-08T17:18:08.974Z,104.70
2023-02-08T17:23:15.970Z,71.90
2023-02-08T17:28:21.209Z,70.10
2023-02-08T17:33:26.273Z,60.60
2023-02-08T17:38:29.674Z,54.40
2023-02-08T17:43:33.253Z,77.70
2023-02-08T17:48:36.841Z,95.30
2023-02-08T17:53:43.802Z,107.90
2023-02-08T17:58:51.354Z,75.70
2023-02-08T18:03:59.420Z,96.30
2023-02-08T18:09:06.324Z,80.60
2023-02-08T18:14:09.581Z,111.20
2023-02-08T18:19:13.060Z,124.80
2023-02-08T18:24:18.533Z,119.60
2023-02-08T18:29:22.028Z,101.90
2023-02-08T18:34:33.567Z,123.20
2023-02-08T18:39:37.968Z,206.70
2023-02-08T18:44:43.794Z,162.10
2023-02-08T18:50:09.180Z,250.40
2023-02-08T18:55:18.884Z,157.30
2023-02-08T19:00:22.432Z,98.20
2023-02-08T19:05:25.871Z,121.60
2023-02-08T19:10:39.155Z,114.40
2023-02-08T19:15:44.997Z,160.20
2023-02-08T19:20:49.822Z,149.50
2023-02-08T19:25:53.359Z,112.90
2023-02-08T19:31:28.072Z,99.40
2023-02-08T19:36:47.309Z,175.90
2023-02-08T19:41:53.001Z,132.90
2023-02-08T19:47:08.535Z,117.90
2023-02-08T19:52:28.664Z,170.30
2023-02-08T19:57:42.224Z,218.90
2023-02-08T20:02:45.575Z,169.60
2023-02-08T20:07:54.063Z,107.00
2023-02-08T20:13:17.442Z,92.10
2023-02-08T20:18:50.622Z,109.00
2023-02-08T20:24:21.984Z,75.10
2023-02-08T20:29:56.165Z,76.50
2023-02-08T20:35:28.938Z,72.70
2023-02-08T20:41:14.672Z,157.40
2023-02-08T20:46:52.149Z,251.50
2023-02-08T20:52:14.646Z,293.10
2023-02-08T20:57:35.924Z,210.40
2023-02-08T21:02:39.381Z,230.00
2023-02-08T21:08:16.249Z,127.20
2023-02-08T21:13:23.082Z,68.50
2023-02-08T21:18:45.790Z,71.90
2023-02-08T21:24:03.506Z,110.20
2023-02-08T21:29:12.854Z,65.20
2023-02-08T21:34:24.906Z,53.30
2023-02-08T21:39:36.783Z,44.00
2023-02-08T21:44:49.437Z,43.10
2023-02-08T21:50:15.931Z,52.50
2023-02-08T21:55:39.085Z,49.90
2023-02-08T22:00:42.474Z,49.60
2023-02-08T22:05:51.782Z,48.70
2023-02-08T22:10:58.317Z,60.10
2023-02-08T22:16:07.083Z,61.60
2023-02-08T22:21:10.351Z,47.60
2023-02-08T22:26:19.411Z,34.10
2023-02-08T22:31:26.219Z,33.40
2023-02-08T22:36:33.040Z,76.70
2023-02-08T22:41:47.922Z,54.30
2023-02-08T22:46:51.413Z,99.60
2023-02-08T22:51:57.793Z,87.30
2023-02-08T22:57:13.567Z,55.10
2023-02-08T23:02:20.202Z,43.40
2023-02-08T23:07:26.735Z,35.40
2023-02-08T23:12:51.208Z,45.20
2023-02-08T23:17:54.877Z,45.80
2023-02-08T23:23:10.182Z,36.20
2023-02-08T23:28:19.534Z,35.80
2023-02-08T23:33:37.958Z,31.70
2023-02-08T23:38:43.188Z,36.10
2023-02-08T23:43:46.784Z,38.00
2023-02-08T23:48:51.079Z,33.60
2023-02-08T23:53:57.728Z,33.80
2023-02-08T23:59:01.084Z,36.10
